Reocin, Spain
Current Conditions -  °F | °C
As of 11:00 AM on Tuesday 27 Jan 2015 (Local Time) from LEXJ Reporting Station
Drizzle Drizzle  
Wind Chill: 50°   Ceiling: 1400
Heat Index: 50°   Visibility: 1.5mi
Dew Point: 48°   Wind: 3mph
Humidity: 94%   Direction: 360°N
Pressure: 30.5"   Gusts: NA
Location:  43.34°N, 4.09°W
Report Text: LEXJ 271000Z 36003KT 320V030 2500 BR -DZ SCT004 BKN014BKN022 10/09 Q1033
Loading
Personal Weather Stations






























Interactive Weather Map New forecast layout! Learn more

10-Day Weather Forecast

Advertisements
Track Severe Weather on mobile